Time;durP1;ratioP1;P1;durP2;ratioP2;P2;SDS_P1;SDS_P2;PMS_P1;PMS_P2;Temp;Humidity;BMP_temperature;BMP_pressure;BME280_temperature;BME280_humidity;BME280_pressure;Samples;Min_cycle;Max_cycle;Signal;HPM_P1;HPM_P2
2021/10/01 00:01:41;;;;;;;5.93;2.10;;;;;;;11.89;78.07;101470.94;4946926;28;20497;-86
2021/10/01 00:04:06;;;;;;;4.38;1.38;;;;;;;11.90;78.35;101483.38;4938701;28;20062;-86
2021/10/01 00:06:32;;;;;;;5.47;1.60;;;;;;;11.90;78.32;101472.59;4938857;28;20043;-87
2021/10/01 00:08:57;;;;;;;5.30;1.50;;;;;;;11.90;78.17;101481.53;4922993;28;20494;-89
2021/10/01 00:11:25;;;;;;;3.97;1.50;;;;;;;11.90;78.27;101457.31;4942824;28;20043;-88
2021/10/01 00:13:51;;;;;;;4.57;1.50;;;;;;;11.90;77.87;101468.06;4920938;28;20557;-86
2021/10/01 00:16:17;;;;;;;4.57;1.40;;;;;;;11.91;78.03;101459.03;4926539;28;20048;-87
2021/10/01 00:18:42;;;;;;;6.15;1.60;;;;;;;11.93;78.16;101465.06;4926559;28;20448;-86
2021/10/01 00:21:08;;;;;;;4.57;1.60;;;;;;;11.91;77.92;101466.22;4935324;28;20189;-87
2021/10/01 00:23:36;;;;;;;6.05;1.50;;;;;;;11.89;77.91;101450.25;4924778;29;20052;-91
2021/10/01 00:26:03;;;;;;;6.38;1.30;;;;;;;11.89;78.25;101466.38;4925898;29;20056;-88
2021/10/01 00:28:28;;;;;;;4.45;1.30;;;;;;;11.86;78.04;101461.31;4925944;29;20330;-86
2021/10/01 00:30:54;;;;;;;3.80;1.20;;;;;;;11.84;78.14;101457.06;4927706;29;20136;-88
2021/10/01 00:33:20;;;;;;;3.95;1.40;;;;;;;11.82;78.88;101454.53;4930466;29;20062;-86
2021/10/01 00:35:48;;;;;;;5.75;1.40;;;;;;;11.76;78.53;101444.41;4914873;29;20067;-87
2021/10/01 00:38:14;;;;;;;7.33;1.57;;;;;;;11.71;78.56;101447.56;4942703;28;20051;-85
2021/10/01 00:40:39;;;;;;;8.10;1.33;;;;;;;11.69;78.72;101435.28;4944225;28;20433;-86
2021/10/01 00:43:05;;;;;;;3.50;1.42;;;;;;;11.70;79.11;101445.03;4927432;28;20442;-86
2021/10/01 00:45:30;;;;;;;4.25;1.08;;;;;;;11.69;78.88;101440.66;4940084;28;20035;-86
2021/10/01 00:47:56;;;;;;;5.15;1.40;;;;;;;11.67;79.07;101439.97;4942291;28;20061;-85
2021/10/01 00:50:21;;;;;;;7.03;1.58;;;;;;;11.67;79.26;101445.34;4937835;28;20063;-85
2021/10/01 00:52:48;;;;;;;5.15;1.40;;;;;;;11.61;79.47;101430.66;4930564;28;20796;-87
2021/10/01 00:55:14;;;;;;;4.30;1.20;;;;;;;11.55;79.59;101430.47;4940061;28;20055;-86
2021/10/01 00:57:40;;;;;;;5.13;1.50;;;;;;;11.55;79.74;101433.16;4933003;28;20501;-86
2021/10/01 01:00:08;;;;;;;6.88;1.30;;;;;;;11.52;79.41;101432.44;4936011;28;20059;-86
2021/10/01 01:02:33;;;;;;;5.50;1.30;;;;;;;11.52;79.55;101426.22;4935805;28;20058;-87
2021/10/01 01:04:59;;;;;;;5.03;1.30;;;;;;;11.52;79.96;101427.06;4938490;28;20474;-86
2021/10/01 01:07:37;;;;;;;4.97;1.30;;;;;;;11.49;79.83;101426.53;4935291;28;20051;-88
2021/10/01 01:10:28;;;;;;;4.55;1.40;;;;;;;11.48;79.79;101420.34;4933564;28;20059;-90
2021/10/01 01:13:32;;;;;;;5.53;1.42;;;;;;;11.48;80.01;101417.66;4933020;28;20406;-85
2021/10/01 01:16:04;;;;;;;5.75;1.90;;;;;;;11.45;79.94;101415.28;4932728;28;20071;-85
2021/10/01 01:18:35;;;;;;;5.32;1.20;;;;;;;11.45;79.94;101409.91;4954113;28;20051;-86
2021/10/01 01:21:03;;;;;;;3.13;1.30;;;;;;;11.43;79.87;101406.50;4935832;28;20059;-85
2021/10/01 01:24:06;;;;;;;5.78;1.65;;;;;;;11.44;80.03;101418.09;4942492;28;20126;-85
2021/10/01 01:26:53;;;;;;;5.22;1.50;;;;;;;11.43;80.23;101402.97;4942647;28;20482;-86
2021/10/01 01:29:34;;;;;;;5.18;1.40;;;;;;;11.41;80.12;101404.97;4937208;28;20397;-86
2021/10/01 01:32:01;;;;;;;6.20;1.83;;;;;;;11.43;80.09;101398.44;4937839;28;20057;-86
2021/10/01 01:34:37;;;;;;;7.32;1.40;;;;;;;11.43;80.32;101403.81;4932303;28;20048;-86
2021/10/01 01:37:09;;;;;;;4.93;1.27;;;;;;;11.42;79.89;101399.47;4934293;28;20066;-86
2021/10/01 01:39:36;;;;;;;5.07;1.45;;;;;;;11.45;80.18;101396.47;4932176;28;20047;-89
2021/10/01 01:42:04;;;;;;;7.03;1.60;;;;;;;11.46;79.96;101392.75;4933550;28;20373;-86
2021/10/01 01:44:30;;;;;;;4.50;1.40;;;;;;;11.49;79.76;101399.66;4935277;28;20051;-85
2021/10/01 01:46:59;;;;;;;5.30;1.55;;;;;;;11.51;79.40;101393.16;4936432;28;20054;-86
2021/10/01 01:49:25;;;;;;;6.97;1.30;;;;;;;11.53;79.58;101388.44;4940887;28;20216;-86
2021/10/01 01:51:51;;;;;;;6.38;1.48;;;;;;;11.54;79.59;101381.25;4924644;29;20056;-86
2021/10/01 01:54:19;;;;;;;5.88;1.67;;;;;;;11.52;79.24;101381.38;4932445;28;20075;-90
2021/10/01 01:56:46;;;;;;;7.20;1.55;;;;;;;11.52;78.93;101384.06;4938387;28;20090;-86
2021/10/01 01:59:13;;;;;;;3.63;1.10;;;;;;;11.55;79.39;101388.28;4936180;28;20052;-85
2021/10/01 02:01:43;;;;;;;4.18;1.33;;;;;;;11.51;78.53;101381.56;4939531;28;20055;-88
2021/10/01 02:04:10;;;;;;;4.47;1.55;;;;;;;11.57;78.81;101388.16;4934517;28;20138;-86
2021/10/01 02:06:37;;;;;;;4.68;1.27;;;;;;;11.57;78.68;101377.41;4941940;28;20522;-86
2021/10/01 02:09:03;;;;;;;4.70;1.30;;;;;;;11.58;79.15;101381.75;4932951;28;20285;-86
2021/10/01 02:11:30;;;;;;;3.78;1.30;;;;;;;11.59;79.54;101388.81;4935009;28;20059;-85
2021/10/01 02:13:57;;;;;;;5.88;1.35;;;;;;;11.55;79.15;101380.22;4939827;28;20130;-89
2021/10/01 02:16:24;;;;;;;5.00;1.25;;;;;;;11.53;78.79;101371.47;4913622;29;20513;-90
2021/10/01 02:18:52;;;;;;;4.03;1.00;;;;;;;11.55;78.75;101371.31;4935328;28;20075;-86
2021/10/01 02:21:21;;;;;;;4.43;1.50;;;;;;;11.59;78.82;101373.53;4934135;28;20134;-86
2021/10/01 02:23:48;;;;;;;4.22;1.33;;;;;;;11.58;78.75;101362.94;4944804;28;20316;-86
2021/10/01 02:26:35;;;;;;;4.30;1.40;;;;;;;11.57;78.94;101353.22;4946625;28;20062;-85
2021/10/01 02:29:25;;;;;;;3.83;1.33;;;;;;;11.52;79.02;101357.19;4946094;28;20047;-86
2021/10/01 02:32:20;;;;;;;3.05;1.30;;;;;;;11.49;78.61;101349.44;4947122;28;20058;-86
2021/10/01 02:34:47;;;;;;;5.07;1.58;;;;;;;11.47;79.09;101347.91;4942741;28;20043;-85
2021/10/01 02:37:13;;;;;;;3.53;1.60;;;;;;;11.47;79.07;101334.47;4956506;28;20125;-85
2021/10/01 02:39:41;;;;;;;5.00;1.30;;;;;;;11.49;79.49;101327.94;4957871;28;20062;-90
2021/10/01 02:42:09;;;;;;;5.13;1.27;;;;;;;11.45;79.34;101345.41;4955560;28;20046;-85
2021/10/01 02:44:36;;;;;;;5.35;1.50;;;;;;;11.45;79.67;101340.03;4955452;28;20048;-86
2021/10/01 02:47:02;;;;;;;4.28;1.35;;;;;;;11.43;79.42;101331.25;4954921;28;20394;-86
2021/10/01 02:49:29;;;;;;;3.60;1.40;;;;;;;11.46;79.29;101325.56;4958408;28;20050;-86
2021/10/01 02:51:58;;;;;;;6.47;1.40;;;;;;;11.46;79.28;101319.34;4957073;28;20039;-89
2021/10/01 02:54:29;;;;;;;6.13;1.35;;;;;;;11.47;79.52;101313.81;4946525;28;20310;-87
2021/10/01 02:57:04;;;;;;;5.55;1.50;;;;;;;11.47;79.68;101311.13;4965589;28;20422;-85
2021/10/01 02:59:32;;;;;;;6.18;1.60;;;;;;;11.47;79.70;101311.13;4955919;28;20051;-89
2021/10/01 03:01:59;;;;;;;4.82;1.27;;;;;;;11.45;79.78;101307.78;4964038;28;20071;-87
2021/10/01 03:04:25;;;;;;;5.47;1.42;;;;;;;11.45;79.22;101313.16;4958427;28;20062;-85
2021/10/01 03:06:52;;;;;;;4.20;1.17;;;;;;;11.47;79.69;101313.81;4952225;28;20107;-86
2021/10/01 03:09:22;;;;;;;4.38;1.35;;;;;;;11.46;79.80;101309.44;4950406;28;20053;-85
2021/10/01 03:11:48;;;;;;;6.03;1.98;;;;;;;11.44;79.87;101306.06;4964380;28;20457;-88
2021/10/01 03:14:17;;;;;;;7.03;1.85;;;;;;;11.45;79.87;101307.78;4965199;28;20078;-86
2021/10/01 03:16:44;;;;;;;5.45;1.50;;;;;;;11.39;79.84;101297.63;4966171;28;20429;-87
2021/10/01 03:19:10;;;;;;;5.40;1.58;;;;;;;11.40;80.14;101293.13;4965489;28;20116;-85
2021/10/01 03:21:37;;;;;;;4.88;1.67;;;;;;;11.36;80.36;101295.25;4965975;28;20050;-87
2021/10/01 03:24:03;;;;;;;4.63;1.48;;;;;;;11.33;80.27;101286.66;4946944;28;20489;-88
2021/10/01 03:26:29;;;;;;;4.70;1.58;;;;;;;11.33;80.41;101286.66;4956235;28;20058;-86
2021/10/01 03:28:55;;;;;;;8.07;1.30;;;;;;;11.32;80.62;101285.84;4965232;28;20094;-85
2021/10/01 03:31:24;;;;;;;7.00;1.75;;;;;;;11.27;80.87;101277.38;4952743;28;20048;-87
2021/10/01 03:33:53;;;;;;;5.07;1.75;;;;;;;11.20;80.81;101293.31;4932848;28;20574;-89
2021/10/01 03:36:18;;;;;;;5.45;1.85;;;;;;;11.25;81.15;101284.78;4957413;28;20138;-85
2021/10/01 03:38:47;;;;;;;5.55;2.15;;;;;;;11.18;81.28;101291.75;4957335;28;20158;-85
2021/10/01 03:41:14;;;;;;;5.00;2.05;;;;;;;11.18;81.43;101291.75;4950823;28;20565;-85
2021/10/01 03:43:40;;;;;;;9.48;2.03;;;;;;;11.14;81.25;101296.63;4936794;29;20095;-85
2021/10/01 03:46:05;;;;;;;4.55;1.67;;;;;;;11.15;81.57;101289.41;4949157;28;20044;-88
2021/10/01 03:48:30;;;;;;;5.93;1.77;;;;;;;11.17;81.63;101287.41;4954412;28;20058;-85
2021/10/01 03:50:56;;;;;;;7.55;2.30;;;;;;;11.13;81.77;101283.31;4951436;28;20044;-85
2021/10/01 03:53:21;;;;;;;6.15;2.30;;;;;;;11.15;81.84;101265.22;4935716;29;20040;-86
2021/10/01 03:55:47;;;;;;;8.30;2.20;;;;;;;11.14;81.26;101260.88;4933252;28;20055;-86
2021/10/01 03:58:12;;;;;;;7.57;2.08;;;;;;;11.18;81.26;101262.22;4933971;28;20463;-86
2021/10/01 04:00:38;;;;;;;5.53;1.90;;;;;;;11.17;81.20;101266.75;4940101;28;20479;-89
2021/10/01 04:03:04;;;;;;;6.28;2.28;;;;;;;11.16;81.70;101262.34;4928918;28;20043;-87
2021/10/01 04:05:29;;;;;;;7.43;2.30;;;;;;;11.16;81.30;101258.84;4946149;28;20078;-87
2021/10/01 04:07:55;;;;;;;7.95;2.03;;;;;;;11.15;81.15;101258.00;4933213;29;20047;-86
2021/10/01 04:10:20;;;;;;;6.38;2.10;;;;;;;11.19;81.53;101255.84;4955373;28;20679;-85
2021/10/01 04:12:46;;;;;;;6.82;2.30;;;;;;;11.16;81.21;101253.47;4937815;29;20048;-90
2021/10/01 04:15:11;;;;;;;3.88;2.00;;;;;;;11.14;81.36;101256.31;4955085;28;20053;-86
2021/10/01 04:17:37;;;;;;;5.53;2.67;;;;;;;11.14;81.58;101253.63;4961921;28;20045;-87
2021/10/01 04:20:04;;;;;;;6.40;2.08;;;;;;;11.16;81.42;101254.31;4949594;28;20051;-86
2021/10/01 04:22:29;;;;;;;6.13;1.90;;;;;;;11.10;81.76;101252.25;4953451;28;20073;-85
2021/10/01 04:24:55;;;;;;;6.45;2.35;;;;;;;11.09;81.71;101252.41;4957973;28;20489;-86
2021/10/01 04:27:20;;;;;;;5.18;2.60;;;;;;;11.04;82.15;101245.66;4967090;28;20108;-86
2021/10/01 04:29:45;;;;;;;5.25;2.08;;;;;;;11.02;81.90;101247.69;4966437;28;20047;-86
2021/10/01 04:32:11;;;;;;;4.28;2.30;;;;;;;10.98;82.29;101237.38;4932659;28;20058;-86
2021/10/01 04:35:19;;;;;;;8.40;2.63;;;;;;;10.95;82.30;101241.22;4963240;28;20053;-86
2021/10/01 04:37:25;;;;;;;6.93;2.03;;;;;;;10.89;82.55;101230.28;4941200;28;20122;-85
2021/10/01 04:39:52;;;;;;;5.65;2.40;;;;;;;10.89;82.98;101225.75;4945658;28;20499;-86
2021/10/01 04:42:18;;;;;;;4.78;1.83;;;;;;;10.88;82.53;101224.06;4947801;28;20051;-85
2021/10/01 04:44:44;;;;;;;8.32;2.47;;;;;;;10.90;82.79;101224.72;4953077;28;20055;-85
2021/10/01 04:47:09;;;;;;;7.93;2.38;;;;;;;10.85;82.60;101210.97;4950496;28;20346;-86
2021/10/01 04:49:34;;;;;;;7.47;2.45;;;;;;;10.84;82.89;101215.47;4961187;28;20071;-86
2021/10/01 04:52:00;;;;;;;7.40;2.22;;;;;;;10.82;82.79;101212.09;4948794;28;20055;-85
2021/10/01 04:54:25;;;;;;;8.25;2.25;;;;;;;10.84;82.99;101209.25;4924276;28;20052;-89
2021/10/01 04:56:51;;;;;;;8.15;1.80;;;;;;;10.82;83.29;101214.78;4920536;29;20066;-90
2021/10/01 04:59:16;;;;;;;6.53;2.22;;;;;;;10.80;83.24;101205.22;4919324;29;20393;-85
2021/10/01 05:01:41;;;;;;;4.28;2.00;;;;;;;10.75;83.10;101204.81;4921674;29;20063;-86
2021/10/01 05:04:07;;;;;;;6.72;2.40;;;;;;;10.79;83.57;101208.91;4920284;29;20917;-87
2021/10/01 05:06:33;;;;;;;6.45;2.22;;;;;;;10.76;83.88;101196.63;4922530;28;20051;-90
2021/10/01 05:08:58;;;;;;;7.55;2.53;;;;;;;10.76;83.53;101201.13;4925226;29;20044;-87
2021/10/01 05:11:23;;;;;;;6.80;2.15;;;;;;;10.74;83.76;101197.78;4925580;28;20385;-86
2021/10/01 05:13:49;;;;;;;7.10;2.85;;;;;;;10.70;83.99;101197.22;4925606;29;20114;-86
2021/10/01 05:16:14;;;;;;;8.85;2.40;;;;;;;10.71;84.03;101195.41;4927107;28;20495;-87
2021/10/01 05:18:39;;;;;;;7.43;2.25;;;;;;;10.59;83.92;101194.81;4930168;28;20530;-86
2021/10/01 05:21:05;;;;;;;7.93;2.58;;;;;;;10.66;84.30;101208.44;4935960;28;20052;-88
2021/10/01 05:23:31;;;;;;;5.70;2.15;;;;;;;10.65;84.32;101209.44;4925355;29;20048;-85
2021/10/01 05:25:58;;;;;;;6.20;2.47;;;;;;;10.63;83.97;101212.28;4929755;28;20174;-87
2021/10/01 05:28:24;;;;;;;6.55;2.40;;;;;;;10.60;84.30;101210.75;4937016;28;20054;-86
2021/10/01 05:30:49;;;;;;;5.95;2.30;;;;;;;10.65;84.23;101210.28;4928793;28;20518;-86
2021/10/01 05:33:15;;;;;;;6.13;2.30;;;;;;;10.67;84.10;101210.13;4942144;28;20128;-86
2021/10/01 05:35:45;;;;;;;7.30;2.25;;;;;;;10.65;84.29;101212.97;4936696;28;20050;-85
2021/10/01 05:38:12;;;;;;;7.32;2.10;;;;;;;10.64;84.61;101211.25;4952693;28;20066;-85
2021/10/01 05:40:39;;;;;;;8.27;2.25;;;;;;;10.64;84.31;101211.25;4951849;28;20047;-86
2021/10/01 05:43:05;;;;;;;6.28;2.53;;;;;;;10.67;84.36;101204.75;4950195;28;20049;-86
2021/10/01 05:45:30;;;;;;;7.93;2.72;;;;;;;10.68;84.46;101201.94;4958521;28;20463;-87
2021/10/01 05:47:56;;;;;;;8.30;2.90;;;;;;;10.68;84.40;101211.81;4948280;28;20043;-86
2021/10/01 05:50:24;;;;;;;6.43;2.15;;;;;;;10.71;84.57;101212.34;4953271;28;20352;-86
2021/10/01 05:55:21;;;;;;;6.03;2.03;;;;;;;10.70;84.08;101201.75;4949978;28;20357;-85
2021/10/01 05:57:46;;;;;;;7.72;2.17;;;;;;;10.74;83.89;101195.09;4957063;28;20461;-87
2021/10/01 06:00:12;;;;;;;6.68;1.90;;;;;;;10.76;83.82;101190.38;4954225;28;20460;-88
2021/10/01 06:02:37;;;;;;;4.47;1.65;;;;;;;10.74;83.55;101192.41;4949730;28;20470;-86
2021/10/01 06:05:02;;;;;;;6.60;1.90;;;;;;;10.80;83.66;101194.47;4925119;29;20066;-86
2021/10/01 06:07:28;;;;;;;7.78;2.13;;;;;;;10.78;83.66;101194.59;4956256;28;20050;-86
2021/10/01 06:09:53;;;;;;;5.50;2.05;;;;;;;10.81;83.38;101194.28;4960690;28;20066;-85
2021/10/01 06:12:19;;;;;;;6.28;1.50;;;;;;;10.81;83.35;101193.47;4957484;28;20038;-86
2021/10/01 06:14:44;;;;;;;4.55;1.90;;;;;;;10.83;83.33;101184.25;4941470;28;20067;-86
2021/10/01 06:17:12;;;;;;;7.95;2.28;;;;;;;10.87;83.62;101183.94;4927385;28;20054;-85
2021/10/01 06:19:40;;;;;;;5.20;1.95;;;;;;;10.87;83.35;101189.31;4932831;28;20066;-86
2021/10/01 06:22:07;;;;;;;5.88;2.22;;;;;;;10.94;82.89;101191.22;4934249;28;20047;-87
2021/10/01 06:24:33;;;;;;;5.15;1.73;;;;;;;10.99;82.42;101185.34;4935422;28;20043;-86
2021/10/01 06:26:59;;;;;;;7.10;1.50;;;;;;;11.03;81.98;101192.94;4943977;28;20085;-89
2021/10/01 06:29:24;;;;;;;6.63;2.00;;;;;;;11.09;82.05;101198.69;4943212;28;20521;-86
2021/10/01 06:31:50;;;;;;;5.60;1.65;;;;;;;11.12;82.19;101198.38;4942248;28;20375;-89
2021/10/01 06:34:15;;;;;;;4.90;1.88;;;;;;;11.16;82.02;101192.53;4941363;28;20541;-86
2021/10/01 06:36:41;;;;;;;6.68;2.05;;;;;;;11.19;81.66;101194.91;4943683;28;20493;-87
2021/10/01 06:39:08;;;;;;;5.70;1.70;;;;;;;11.23;81.43;101200.81;4941790;28;20482;-87
2021/10/01 06:41:34;;;;;;;5.18;1.75;;;;;;;11.25;81.46;101193.44;4942899;28;20410;-88
2021/10/01 06:44:03;;;;;;;4.88;1.75;;;;;;;11.27;81.09;101188.72;4940997;28;20094;-87
2021/10/01 06:46:48;;;;;;;5.40;1.73;;;;;;;11.30;80.91;101194.63;4948317;28;20587;-88
2021/10/01 08:19:41;;;;;;;5.20;1.42;;;;;;;13.05;73.65;101169.63;4941903;28;20074;-87
2021/10/01 08:22:09;;;;;;;7.95;1.70;;;;;;;13.07;73.05;101162.22;4944286;28;20051;-86
2021/10/01 08:24:35;;;;;;;6.45;1.85;;;;;;;13.10;73.37;101169.94;4934886;28;20418;-89
2021/10/01 08:27:01;;;;;;;5.95;1.55;;;;;;;13.13;73.59;101158.00;4935743;28;20302;-88
2021/10/01 08:29:27;;;;;;;7.15;2.55;;;;;;;13.15;73.90;101166.72;4937302;28;20048;-87
2021/10/01 08:32:00;;;;;;;6.47;1.88;;;;;;;13.17;73.43;101160.16;4932483;28;20055;-87
2021/10/01 08:34:27;;;;;;;6.78;1.25;;;;;;;13.22;73.38;101162.34;4934832;28;20324;-87
2021/10/01 08:36:52;;;;;;;5.47;1.98;;;;;;;13.24;73.80;101157.63;4934932;28;20411;-87
2021/10/01 08:39:18;;;;;;;5.05;1.98;;;;;;;13.26;73.37;101159.19;4937379;28;20111;-85
2021/10/01 08:41:43;;;;;;;5.53;1.83;;;;;;;13.29;72.99;101157.97;4939535;28;20048;-87
2021/10/01 08:44:09;;;;;;;4.15;1.65;;;;;;;13.32;72.98;101154.91;4939285;28;20053;-87
2021/10/01 08:46:35;;;;;;;6.50;1.90;;;;;;;13.35;73.11;101153.72;4935830;28;20055;-89
2021/10/01 08:49:02;;;;;;;7.97;1.90;;;;;;;13.41;73.33;101156.59;4934381;28;20051;-87
2021/10/01 08:51:28;;;;;;;6.43;1.83;;;;;;;13.50;73.44;101154.72;4936946;28;20063;-86
2021/10/01 08:53:54;;;;;;;5.32;1.75;;;;;;;13.58;71.63;101160.06;4937400;28;20047;-88
2021/10/01 08:56:23;;;;;;;4.97;1.45;;;;;;;13.67;72.01;101155.47;4942994;28;20736;-86
2021/10/01 08:58:48;;;;;;;5.97;1.57;;;;;;;13.76;72.10;101155.25;4933455;28;20329;-86
2021/10/01 09:01:13;;;;;;;5.22;1.77;;;;;;;13.90;70.66;101139.34;4939226;28;20471;-86
2021/10/01 09:03:41;;;;;;;4.10;1.58;;;;;;;14.00;71.34;101148.88;4938125;28;20043;-86
2021/10/01 09:06:07;;;;;;;5.72;1.50;;;;;;;14.13;70.40;101144.78;4941437;28;20194;-86
2021/10/01 09:08:34;;;;;;;6.15;1.63;;;;;;;14.18;70.23;101148.63;4935114;28;20107;-88
2021/10/01 09:11:05;;;;;;;5.18;1.60;;;;;;;14.19;70.85;101147.59;4937355;28;20047;-87
2021/10/01 09:13:33;;;;;;;4.78;1.70;;;;;;;14.20;70.98;101140.31;4934241;28;20048;-86
2021/10/01 09:16:04;;;;;;;9.13;1.60;;;;;;;14.18;70.21;101132.41;4927151;29;20054;-86
2021/10/01 09:18:32;;;;;;;6.32;1.75;;;;;;;14.22;70.34;101143.69;4936024;28;20420;-90
2021/10/01 09:21:07;;;;;;;9.43;1.67;;;;;;;14.23;69.66;101140.78;4932080;28;20247;-87
2021/10/01 09:23:36;;;;;;;6.18;2.22;;;;;;;14.22;69.30;101105.91;4936835;28;20061;-88
2021/10/01 09:26:16;;;;;;;4.63;1.38;;;;;;;14.26;69.23;101117.16;4937664;28;20062;-88
2021/10/01 09:28:57;;;;;;;6.40;1.60;;;;;;;14.31;69.14;101125.56;4918081;28;20221;-86
2021/10/01 09:31:40;;;;;;;5.68;1.52;;;;;;;14.34;69.95;101112.53;4943178;28;21410;-88
2021/10/01 09:34:12;;;;;;;5.05;1.67;;;;;;;14.39;68.93;101112.84;4942267;28;20059;-87
2021/10/01 09:36:38;;;;;;;10.23;1.75;;;;;;;14.51;69.27;101105.16;4945284;28;20055;-87
2021/10/01 09:39:05;;;;;;;6.78;1.90;;;;;;;14.72;69.13;101119.84;4941282;28;20139;-87
2021/10/01 09:41:33;;;;;;;5.68;1.38;;;;;;;14.86;67.81;101100.94;4943992;28;20055;-86
2021/10/01 09:44:09;;;;;;;4.40;1.40;;;;;;;14.89;67.13;101102.44;4945126;28;20144;-89
2021/10/01 09:46:49;;;;;;;5.10;1.42;;;;;;;14.92;68.37;101107.47;4897603;29;20049;-88
2021/10/01 09:49:17;;;;;;;5.22;1.45;;;;;;;15.05;68.70;101086.06;4955431;28;20059;-88
2021/10/01 09:51:52;;;;;;;7.47;1.70;;;;;;;15.10;68.47;101090.91;4932341;28;20100;-90
2021/10/01 09:54:21;;;;;;;4.53;1.45;;;;;;;15.16;67.39;101064.97;4935208;28;20254;-89
2021/10/01 09:56:47;;;;;;;5.90;1.60;;;;;;;15.16;67.12;101089.31;4933470;28;20090;-88
2021/10/01 09:59:23;;;;;;;5.35;1.50;;;;;;;15.21;67.36;101092.28;4938733;28;20044;-88
2021/10/01 10:02:08;;;;;;;5.18;1.70;;;;;;;15.19;65.88;101083.53;4934997;28;20079;-87
2021/10/01 10:04:52;;;;;;;4.03;1.35;;;;;;;15.21;67.47;101081.47;4926740;28;20059;-87
2021/10/01 10:07:18;;;;;;;5.80;1.60;;;;;;;15.16;66.48;101083.91;4921647;28;20128;-90
2021/10/01 10:09:50;;;;;;;5.60;1.30;;;;;;;15.10;66.15;101085.50;4916050;28;20121;-87
2021/10/01 10:12:26;;;;;;;5.40;1.70;;;;;;;15.09;67.07;101078.41;4935800;28;20063;-87
2021/10/01 10:14:53;;;;;;;4.80;1.30;;;;;;;15.04;67.74;101087.06;4938417;28;20142;-88
2021/10/01 10:17:25;;;;;;;6.40;1.70;;;;;;;15.01;68.85;101079.34;4910116;28;20510;-89
2021/10/01 10:19:53;;;;;;;4.60;1.70;;;;;;;14.97;68.49;101077.22;4937110;28;20212;-87
2021/10/01 10:22:19;;;;;;;5.25;1.85;;;;;;;14.99;67.97;101075.13;4930567;28;20044;-87
2021/10/01 10:24:46;;;;;;;6.05;1.70;;;;;;;15.02;67.25;101069.41;4936682;28;20486;-88
2021/10/01 10:27:11;;;;;;;5.05;1.33;;;;;;;15.12;67.44;101086.97;4927570;28;20509;-89
2021/10/01 10:29:39;;;;;;;6.45;1.70;;;;;;;15.23;67.91;101077.56;4941789;28;20141;-88
2021/10/01 10:32:11;;;;;;;4.85;1.40;;;;;;;15.29;66.80;101076.81;4935511;28;20070;-88
2021/10/01 10:35:06;;;;;;;4.18;1.30;;;;;;;15.30;65.33;101067.66;4932138;28;20466;-87
2021/10/01 10:37:40;;;;;;;5.47;1.45;;;;;;;15.38;66.01;101074.84;4936235;28;20146;-88
2021/10/01 10:40:08;;;;;;;5.05;1.25;;;;;;;15.45;66.13;101067.66;4938945;28;20054;-88
2021/10/01 10:42:48;;;;;;;4.68;1.50;;;;;;;15.56;66.77;101061.78;4929762;28;20051;-88
2021/10/01 10:45:19;;;;;;;5.35;1.30;;;;;;;15.65;66.80;101065.19;4927024;28;20142;-87
2021/10/01 10:47:45;;;;;;;6.38;1.33;;;;;;;15.73;64.72;101046.16;4956225;28;20059;-88
2021/10/01 10:50:25;;;;;;;4.35;1.58;;;;;;;15.77;63.98;101062.84;4936145;28;20550;-88
2021/10/01 10:53:19;;;;;;;6.45;1.65;;;;;;;15.83;63.40;101051.25;4939156;28;20063;-88
2021/10/01 10:55:55;;;;;;;4.68;1.30;;;;;;;15.84;64.27;101057.50;4924173;28;20061;-88
2021/10/01 10:58:23;;;;;;;6.13;1.88;;;;;;;15.90;65.04;101062.97;4921209;29;20126;-87
2021/10/01 11:01:15;;;;;;;2.80;0.90;;;;;;;15.91;63.13;101053.84;4939691;28;20051;-87
2021/10/01 11:03:41;;;;;;;6.15;1.40;;;;;;;15.94;63.37;101049.88;4920846;28;20874;-87
2021/10/01 11:06:13;;;;;;;5.97;1.48;;;;;;;15.98;64.65;101048.50;4946268;28;20050;-87
2021/10/01 11:08:47;;;;;;;5.15;1.52;;;;;;;16.02;64.21;101041.66;4948381;28;20051;-87
2021/10/01 11:11:33;;;;;;;4.20;1.63;;;;;;;16.07;63.27;101041.91;4951378;28;20055;-88
2021/10/01 11:14:28;;;;;;;6.28;1.48;;;;;;;16.11;62.61;101037.78;4940739;28;20141;-87
2021/10/01 11:16:53;;;;;;;4.75;1.30;;;;;;;16.20;64.52;101039.31;4939534;28;20054;-88
2021/10/01 11:19:40;;;;;;;4.55;1.48;;;;;;;16.30;65.02;101040.84;4938987;28;20063;-87
2021/10/01 11:22:27;;;;;;;7.50;1.95;;;;;;;16.43;62.99;101040.97;4928603;28;20490;-87
2021/10/01 11:24:58;;;;;;;6.80;1.80;;;;;;;16.55;62.02;101033.13;4936615;28;20080;-88
2021/10/01 11:27:23;;;;;;;6.18;1.30;;;;;;;16.59;62.66;101018.16;4952677;28;20066;-87
2021/10/01 11:29:49;;;;;;;4.05;1.33;;;;;;;16.65;61.55;101026.31;4947305;28;20474;-88
2021/10/01 11:32:22;;;;;;;3.45;1.02;;;;;;;16.79;61.92;101023.72;4941813;28;20047;-87
2021/10/01 11:35:01;;;;;;;3.25;1.20;;;;;;;16.81;62.56;101017.06;4916585;29;20055;-87
2021/10/01 11:37:30;;;;;;;5.45;1.45;;;;;;;17.06;64.32;101016.56;4937556;28;20055;-88
2021/10/01 11:40:00;;;;;;;6.78;1.52;;;;;;;17.16;61.41;101016.22;4931048;28;20410;-88
2021/10/01 11:42:28;;;;;;;6.55;1.27;;;;;;;17.04;59.84;101011.34;4943439;28;20053;-90
2021/10/01 11:44:56;;;;;;;11.00;1.58;;;;;;;16.96;60.18;101003.38;4929925;28;20641;-88
2021/10/01 11:47:22;;;;;;;3.75;1.50;;;;;;;16.87;59.84;101005.44;4913536;28;20516;-88
2021/10/01 11:49:58;;;;;;;4.30;1.50;;;;;;;16.91;61.17;100998.56;4936106;28;20052;-88
2021/10/01 11:52:26;;;;;;;4.63;1.40;;;;;;;17.07;61.29;100996.56;4935391;28;20127;-87
2021/10/01 11:55:00;;;;;;;4.90;1.50;;;;;;;17.18;60.08;100993.28;4935794;28;20139;-88
2021/10/01 11:57:40;;;;;;;8.55;1.55;;;;;;;17.28;60.93;100995.59;4937116;28;20101;-88
2021/10/01 12:00:12;;;;;;;8.55;1.50;;;;;;;17.29;61.59;100989.97;4934925;28;20490;-87
2021/10/01 12:02:43;;;;;;;5.80;1.35;;;;;;;17.43;61.04;100992.72;4963921;28;20055;-88
2021/10/01 12:05:34;;;;;;;7.18;1.67;;;;;;;17.41;61.23;100979.38;4941445;28;20379;-88
2021/10/01 12:08:07;;;;;;;5.07;2.03;;;;;;;17.54;61.01;100975.84;4915220;28;20050;-88
2021/10/01 12:10:41;;;;;;;4.15;1.10;;;;;;;17.69;59.69;100978.38;4944841;28;20047;-88
2021/10/01 12:13:14;;;;;;;3.28;1.20;;;;;;;17.74;60.66;100965.84;4936450;28;20058;-88
2021/10/01 12:15:46;;;;;;;3.88;1.25;;;;;;;17.84;58.85;100962.78;4943625;28;20665;-88
2021/10/01 12:18:33;;;;;;;6.75;1.23;;;;;;;17.92;60.49;100959.81;4926494;28;20063;-87
2021/10/01 12:21:02;;;;;;;5.90;1.13;;;;;;;17.94;59.82;100952.31;4926399;29;20050;-89
2021/10/01 12:23:43;;;;;;;5.68;1.45;;;;;;;17.95;59.42;100959.44;4939588;28;20262;-87
2021/10/01 12:26:19;;;;;;;3.50;1.35;;;;;;;18.06;57.91;100960.66;4937371;28;20047;-89
2021/10/01 12:29:17;;;;;;;5.78;1.65;;;;;;;18.03;58.21;100940.19;4959159;28;20147;-89
2021/10/01 12:31:47;;;;;;;8.93;1.42;;;;;;;18.11;58.05;100931.00;4941873;28;20051;-89
2021/10/01 12:34:26;;;;;;;5.82;1.20;;;;;;;18.18;57.41;100942.72;4924752;28;20059;-88
2021/10/01 12:37:00;;;;;;;2.42;1.20;;;;;;;18.22;57.61;100937.69;4950024;28;20413;-89
2021/10/01 12:39:27;;;;;;;7.72;1.23;;;;;;;18.25;58.39;100931.84;4931742;28;20051;-88
2021/10/01 12:41:55;;;;;;;4.32;1.10;;;;;;;18.38;58.71;100939.13;4934264;28;20055;-90
2021/10/01 12:44:20;;;;;;;4.25;1.30;;;;;;;18.44;56.43;100935.53;4925519;28;20385;-88
2021/10/01 12:46:51;;;;;;;4.57;1.10;;;;;;;18.42;57.83;100915.94;4945926;28;20061;-88
2021/10/01 12:49:27;;;;;;;3.97;1.25;;;;;;;18.41;59.37;100919.66;4932790;28;20054;-89
2021/10/01 12:52:00;;;;;;;5.13;1.20;;;;;;;18.49;58.85;100914.84;4945444;28;20059;-88
2021/10/01 12:54:27;;;;;;;5.28;1.10;;;;;;;18.54;60.63;100914.22;4946550;28;20050;-89
2021/10/01 12:57:11;;;;;;;5.22;1.08;;;;;;;18.60;60.89;100913.34;4948664;28;20063;-87
2021/10/01 12:59:47;;;;;;;6.10;1.30;;;;;;;18.55;58.39;100909.59;4960528;28;20087;-89
2021/10/01 13:02:23;;;;;;;4.95;1.40;;;;;;;18.55;58.85;100913.16;4943943;28;20055;-89
2021/10/01 13:05:02;;;;;;;4.35;1.10;;;;;;;18.61;60.71;100922.34;4935815;28;20094;-90
2021/10/01 13:07:31;;;;;;;4.47;1.20;;;;;;;18.77;59.67;100918.34;4912122;28;20074;-88
2021/10/01 13:10:04;;;;;;;5.40;1.67;;;;;;;18.85;59.08;100912.69;4938865;28;20525;-88